Ahlsell — OYZH — position and weather

sailwx.info

Track history (hours):
 
Tides and Currents Weather Stations Pressure Air Temp Water Temp Dewpoint Dewpoint Depression Visibility Wind Speed Wind Dir Waves Ship Positions

Ahlsell

Last reported at 2015-Mar-30 12:33 UTC. Time now 2015-Mar-30 13:01 UTC.
Position N 55°06' E 014°41'.

Length 40 m; draft 4 m.

Type: Dredging. MMSI: 219000852.

Date/timePositionNaut miles runAvg speedWind from/ knotsBaromVisibWave heightAir tempDewpointWater temp
2015-Mar-30 12:33N 55°06' E 014°41'0 0.0
2015-Mar-30 11:33N 55°06' E 014°41'0 0.0
2015-Mar-30 10:33N 55°06' E 014°41'0 0.0
2015-Mar-30 09:33N 55°06' E 014°41'0 0.0
2015-Mar-30 08:33N 55°06' E 014°41'0 0.0
2015-Mar-30 07:33N 55°06' E 014°41'0 0.0
2015-Mar-30 06:33N 55°06' E 014°41'0 0.1
2015-Mar-30 05:33N 55°06' E 014°41'0 0.0
2015-Mar-30 04:33N 55°06' E 014°41'0 0.0
2015-Mar-30 03:33N 55°06' E 014°41'0 0.0
2015-Mar-30 02:33N 55°06' E 014°41'0 0.0
2015-Mar-30 01:33N 55°06' E 014°41'0 0.0
2015-Mar-30 00:33N 55°06' E 014°41'0 0.0
2015-Mar-29 23:33N 55°06' E 014°41'0 0.0
2015-Mar-29 22:33N 55°06' E 014°41'0 0.0
2015-Mar-29 21:33N 55°06' E 014°41'0 0.0
2015-Mar-29 20:33N 55°06' E 014°41'0 0.0
2015-Mar-29 19:33N 55°06' E 014°41'0 0.0
2015-Mar-29 18:33N 55°06' E 014°41'0 0.0
2015-Mar-29 17:33N 55°06' E 014°41'0 0.0
2015-Mar-29 16:33N 55°06' E 014°41'0 0.0
2015-Mar-29 15:33N 55°06' E 014°41'0 0.0
2015-Mar-29 14:33N 55°06' E 014°41'0 0.0
2015-Mar-29 13:33N 55°06' E 014°41'0 0.0
2015-Mar-29 12:33N 55°06' E 014°41'0 0.0
2015-Mar-29 11:33N 55°06' E 014°41'0 0.0
2015-Mar-29 10:33N 55°06' E 014°41'0 0.0
2015-Mar-29 09:33N 55°06' E 014°41'0 0.0
2015-Mar-29 08:33N 55°06' E 014°41'0 0.0
2015-Mar-29 07:33N 55°06' E 014°41'0 0.0
2015-Mar-29 06:33N 55°06' E 014°41'0 0.0
2015-Mar-29 05:33N 55°06' E 014°41'0 0.0
2015-Mar-29 04:33N 55°06' E 014°41'0 0.0
2015-Mar-29 03:33N 55°06' E 014°41'0 0.0
2015-Mar-29 02:33N 55°06' E 014°41'0 0.0
2015-Mar-29 01:33N 55°06' E 014°41'0 0.0
2015-Mar-29 00:33N 55°06' E 014°41'0 0.0
2015-Mar-28 23:33N 55°06' E 014°41'0 0.0
2015-Mar-28 22:33N 55°06' E 014°41'0 0.0
2015-Mar-28 21:33N 55°06' E 014°41'0 0.0
2015-Mar-28 20:33N 55°06' E 014°41'0 0.0
2015-Mar-28 19:33N 55°06' E 014°41'2 1.5
2015-Mar-28 18:33N 55°04' E 014°42'7 7.3
2015-Mar-28 17:33N 54°58' E 014°48'2 2.1
2015-Mar-28 16:33N 54°56' E 014°50'6 5.8
2015-Mar-28 15:33N 55°01' E 014°45'5 5.1
2015-Mar-28 14:33N 55°06' E 014°41'0 0.0
2015-Mar-28 13:33N 55°06' E 014°41'2 2.1
2015-Mar-28 12:33N 55°04' E 014°41'7 7.1
2015-Mar-28 11:33N 54°58' E 014°48'2 2.0
2015-Mar-28 10:33N 54°56' E 014°50'4 3.9
2015-Mar-28 09:33N 54°60' E 014°46'7 7.0
2015-Mar-28 08:33N 55°06' E 014°41'0 0.0
2015-Mar-28 07:33N 55°06' E 014°41'1 1.0
2015-Mar-28 06:33N 55°05' E 014°41'7 6.7
2015-Mar-28 05:34N 54°59' E 014°47'3 3.4
2015-Mar-28 04:33N 54°56' E 014°50'3 3.2
2015-Mar-28 03:33N 54°59' E 014°47'8 7.6
2015-Mar-28 02:33N 55°06' E 014°41'0 0.2
2015-Mar-28 01:33N 55°06' E 014°41'0 0.0
2015-Mar-28 00:33N 55°06' E 014°41'7 6.5
2015-Mar-27 23:33N 54°60' E 014°46'4 4.4
2015-Mar-27 22:33N 54°56' E 014°50'4 4.4
2015-Mar-27 21:33N 54°60' E 014°46'7 6.5
2015-Mar-27 20:33N 55°06' E 014°41'0 0.0
2015-Mar-27 19:33N 55°06' E 014°41'1 1.3
2015-Mar-27 18:33N 55°05' E 014°41'7 7.3
2015-Mar-27 17:33N 54°59' E 014°48'2 1.9
2015-Mar-27 16:33N 54°57' E 014°50'7 6.8
2015-Mar-27 15:33N 55°03' E 014°43'3 3.5
2015-Mar-27 14:33N 55°06' E 014°41'0 0.0
2015-Mar-27 13:33N 55°06' E 014°41'3 2.7
2015-Mar-27 12:33N 55°03' E 014°42'7 7.3
2015-Mar-27 11:33N 54°57' E 014°50'0 0.1
2015-Mar-27 10:33N 54°57' E 014°50'9 8.6
2015-Mar-27 09:33N 55°05' E 014°41'1 1.4
2015-Mar-27 08:33N 55°06' E 014°41'0 0.0
2015-Mar-27 07:33N 55°06' E 014°41'0 0.0
2015-Mar-27 06:33N 55°06' E 014°41'0 0.0
2015-Mar-27 05:33N 55°06' E 014°41'0 0.0
2015-Mar-27 04:33N 55°06' E 014°41'2 2.0
2015-Mar-27 03:33N 55°04' E 014°42'0 0.0
2015-Mar-27 02:33N 55°04' E 014°41'0 0.0
2015-Mar-27 01:33N 55°04' E 014°41'0 0.0
2015-Mar-27 00:33N 55°04' E 014°41'0 0.0
2015-Mar-26 23:33N 55°04' E 014°41'2 2.0
2015-Mar-26 22:33N 55°06' E 014°41'0 0.0
2015-Mar-26 21:33N 55°06' E 014°41'2 2.0
2015-Mar-26 20:33N 55°04' E 014°41'0 0.0
2015-Mar-26 19:33N 55°04' E 014°41'0 0.0
2015-Mar-26 18:33N 55°04' E 014°41'0 0.0
2015-Mar-26 17:34N 55°04' E 014°41'2 2.0
2015-Mar-26 16:33N 55°06' E 014°41'0 0.0
2015-Mar-26 15:33N 55°06' E 014°41'2 2.0
2015-Mar-26 14:33N 55°04' E 014°41'0 0.0
2015-Mar-26 13:33N 55°04' E 014°41'0 0.0
2015-Mar-26 12:33N 55°04' E 014°41'0 0.0
2015-Mar-26 11:34N 55°04' E 014°41'2 2.0
2015-Mar-26 10:33N 55°06' E 014°41'0 0.0
2015-Mar-26 09:33N 55°06' E 014°41'2 1.9
2015-Mar-26 08:34N 55°04' E 014°41'0 0.1
2015-Mar-26 07:33N 55°04' E 014°41'0 0.0
2015-Mar-26 06:33N 55°04' E 014°41'0 0.0
2015-Mar-26 05:33N 55°04' E 014°41'0 0.0
2015-Mar-26 04:34N 55°04' E 014°41'0 0.1
2015-Mar-26 03:33N 55°04' E 014°41'2 1.9
2015-Mar-26 02:33N 55°06' E 014°41'0 0.0
2015-Mar-26 01:33N 55°06' E 014°41'2 1.9
2015-Mar-26 00:33N 55°04' E 014°41'0 0.0
2015-Mar-25 23:33N 55°04' E 014°41'0 0.0
2015-Mar-25 22:34N 55°04' E 014°41'0 0.0
2015-Mar-25 21:33N 55°04' E 014°41'0 0.0
2015-Mar-25 20:33N 55°04' E 014°41'1 0.9
2015-Mar-25 19:33N 55°05' E 014°41'1 1.2
2015-Mar-25 18:33N 55°06' E 014°41'0 0.1
2015-Mar-25 17:34N 55°06' E 014°41'2 1.9
2015-Mar-25 16:34N 55°04' E 014°41'0 0.0
2015-Mar-25 15:33N 55°04' E 014°41'0 0.0
2015-Mar-25 14:33N 55°04' E 014°41'0 0.0
2015-Mar-25 13:33N 55°04' E 014°41'0 0.1
2015-Mar-25 12:34N 55°04' E 014°41'2 2.0
2015-Mar-25 11:33N 55°06' E 014°41'0 0.0
2015-Mar-25 10:33N 55°06' E 014°41'0 0.0
2015-Mar-25 09:33N 55°06' E 014°41'4 3.9
2015-Mar-25 08:33N 55°02' E 014°40'0 0.0
2015-Mar-25 07:33N 55°02' E 014°40'0 0.0
2015-Mar-25 06:33N 55°02' E 014°40'1 0.7
2015-Mar-25 05:33N 55°03' E 014°40'3 3.2
2015-Mar-25 04:33N 55°06' E 014°41'0 0.0
2015-Mar-25 03:33N 55°06' E 014°41'4 3.9
2015-Mar-25 02:33N 55°02' E 014°40'0 0.0
2015-Mar-25 01:34N 55°02' E 014°40'0 0.0
2015-Mar-25 00:33N 55°02' E 014°40'0 0.0
2015-Mar-24 23:33N 55°02' E 014°40'4 3.9
2015-Mar-24 22:33N 55°06' E 014°41'0 0.0
2015-Mar-24 21:33N 55°06' E 014°41'3 3.5
2015-Mar-24 20:33N 55°03' E 014°40'0 0.4
2015-Mar-24 19:33N 55°02' E 014°40'0 0.0
2015-Mar-24 18:33N 55°02' E 014°40'0 0.0
2015-Mar-24 17:33N 55°02' E 014°40'4 3.9
2015-Mar-24 16:33N 55°06' E 014°41'0 0.0
2015-Mar-24 15:33N 55°06' E 014°41'0 0.1
2015-Mar-24 14:33N 55°06' E 014°41'4 3.9
2015-Mar-24 13:33N 55°02' E 014°40'0 0.0
2015-Mar-24 12:33N 55°02' E 014°40'0 0.0
2015-Mar-24 11:34N 55°02' E 014°40'0 0.0
2015-Mar-24 10:34N 55°02' E 014°40'4 3.9
2015-Mar-24 09:33N 55°06' E 014°41'0 0.0
2015-Mar-24 08:33N 55°06' E 014°41'0 0.0
2015-Mar-24 07:33N 55°06' E 014°41'0 0.0
2015-Mar-24 06:33N 55°06' E 014°41'0 0.0
2015-Mar-24 05:33N 55°06' E 014°41'0 0.0
2015-Mar-24 04:33N 55°06' E 014°41'0 0.0
2015-Mar-24 03:34N 55°06' E 014°41'0 0.0
2015-Mar-24 02:33N 55°06' E 014°41'0 0.0
2015-Mar-24 01:33N 55°06' E 014°41'0 0.0
2015-Mar-24 00:33N 55°06' E 014°41'0 0.0
2015-Mar-23 23:33N 55°06' E 014°41'0 0.0
2015-Mar-23 22:33N 55°06' E 014°41'0 0.0
2015-Mar-23 21:33N 55°06' E 014°41'0 0.0
2015-Mar-23 20:33N 55°06' E 014°41'0 0.0
2015-Mar-23 19:33N 55°06' E 014°41'0 0.0
2015-Mar-23 18:33N 55°06' E 014°41'0 0.0
2015-Mar-23 17:33N 55°06' E 014°41'1 1.5
2015-Mar-23 16:33N 55°05' E 014°40'1 1.2
2015-Mar-23 15:33N 55°06' E 014°41'0 0.2
2015-Mar-23 14:33N 55°06' E 014°41'0 0.0
2015-Mar-23 13:33N 55°06' E 014°41'2 2.1
2015-Mar-23 12:33N 55°04' E 014°41'2 1.8
2015-Mar-23 11:33N 55°02' E 014°40'0 0.0
2015-Mar-23 10:33N 55°02' E 014°40'0 0.0
2015-Mar-23 09:34N 55°02' E 014°40'2 1.7
2015-Mar-23 08:33N 55°04' E 014°40'2 2.4
2015-Mar-23 07:33N 55°06' E 014°41'0 0.0
2015-Mar-23 06:33N 55°06' E 014°41'0 0.0
2015-Mar-23 05:33N 55°06' E 014°41'0 0.0
2015-Mar-23 04:33N 55°06' E 014°41'0 0.0
2015-Mar-23 03:33N 55°06' E 014°41'0 0.0
2015-Mar-23 02:34N 55°06' E 014°41'0 0.0
2015-Mar-23 01:33N 55°06' E 014°41'0 0.0
2015-Mar-23 00:33N 55°06' E 014°41'0 0.0
2015-Mar-22 23:33N 55°06' E 014°41'0 0.0
2015-Mar-22 22:33N 55°06' E 014°41'0 0.0
2015-Mar-22 21:33N 55°06' E 014°41'0 0.0
2015-Mar-22 20:33N 55°06' E 014°41'0 0.0
2015-Mar-22 19:33N 55°06' E 014°41'0 0.0
2015-Mar-22 18:33N 55°06' E 014°41'0 0.0
2015-Mar-22 17:34N 55°06' E 014°41'0 0.0
2015-Mar-22 16:34N 55°06' E 014°41'0 0.0
2015-Mar-22 15:34N 55°06' E 014°41'0 0.0
2015-Mar-22 14:33N 55°06' E 014°41'0 0.0
2015-Mar-22 13:34N 55°06' E 014°41'0 0.0
2015-Mar-22 12:34N 55°06' E 014°41'0 0.0
2015-Mar-22 11:34N 55°06' E 014°41'0 0.0
2015-Mar-22 10:34N 55°06' E 014°41'0 0.0
2015-Mar-22 09:34N 55°06' E 014°41'0 0.0
2015-Mar-22 08:34N 55°06' E 014°41'0 0.0
2015-Mar-22 07:34N 55°06' E 014°41'0 0.0
2015-Mar-22 06:34N 55°06' E 014°41'0 0.1
2015-Mar-22 05:34N 55°06' E 014°41'0 0.0
2015-Mar-22 04:34N 55°06' E 014°41'1 0.9
2015-Mar-22 03:34N 55°05' E 014°40'1 1.3
2015-Mar-22 02:34N 55°04' E 014°41'0 0.0
2015-Mar-22 01:34N 55°04' E 014°41'2 2.0
2015-Mar-22 00:34N 55°06' E 014°41'0 0.0
2015-Mar-21 23:34N 55°06' E 014°41'0 0.2
2015-Mar-21 22:33N 55°06' E 014°41'2 1.8
2015-Mar-21 21:34N 55°04' E 014°41'0 0.0
2015-Mar-21 20:34N 55°04' E 014°41'2 2.0
2015-Mar-21 19:34N 55°06' E 014°41'0 0.0
2015-Mar-21 18:34N 55°06' E 014°41'1 0.9
2015-Mar-21 17:34N 55°05' E 014°40'1 1.3
2015-Mar-21 16:33N 55°04' E 014°41'0 0.0
2015-Mar-21 15:34N 55°04' E 014°41'0 0.0
2015-Mar-21 14:34N 55°04' E 014°41'2 2.0
2015-Mar-21 13:34N 55°06' E 014°41'0 0.0
2015-Mar-21 12:33N 55°06' E 014°41'1 0.5
2015-Mar-21 11:34N 55°06' E 014°41'2 1.6
2015-Mar-21 10:33N 55°04' E 014°41'0 0.0
2015-Mar-21 09:34N 55°04' E 014°41'0 0.4
2015-Mar-21 08:34N 55°04' E 014°41'2 1.7
2015-Mar-21 07:33N 55°06' E 014°41'0 0.0
2015-Mar-21 06:33N 55°06' E 014°41'4 3.8
2015-Mar-21 05:34N 55°02' E 014°40'0 0.0
2015-Mar-21 04:33N 55°02' E 014°40'0 0.0
2015-Mar-21 03:33N 55°02' E 014°40'0 0.0
2015-Mar-21 02:34N 55°02' E 014°40'3 2.6
2015-Mar-21 01:34N 55°05' E 014°41'1 1.2
2015-Mar-21 00:34N 55°06' E 014°41'0 0.0
2015-Mar-20 23:34N 55°06' E 014°41'4 3.9
2015-Mar-20 22:33N 55°02' E 014°40'0 0.0
2015-Mar-20 21:33N 55°02' E 014°40'0 0.0
2015-Mar-20 20:34N 55°02' E 014°40'0 0.0
2015-Mar-20 19:34N 55°02' E 014°40'1 1.2
2015-Mar-20 18:34N 55°03' E 014°40'3 2.7
2015-Mar-20 17:34N 55°06' E 014°41'0 0.0
2015-Mar-20 16:34N 55°06' E 014°41'4 3.8
2015-Mar-20 15:33N 55°02' E 014°40'0 0.0
2015-Mar-20 14:34N 55°02' E 014°40'0 0.0
2015-Mar-20 13:34N 55°02' E 014°40'0 0.0
2015-Mar-20 12:34N 55°02' E 014°40'  
Track history (hours):
 
Tides and Currents Weather Stations Pressure Air Temp Water Temp Dewpoint Dewpoint Depression Visibility Wind Speed Wind Dir Waves Ship Positions

Ahlsell

Last reported at 2015-Mar-30 12:33 UTC. Time now 2015-Mar-30 13:01 UTC.
Position N 55°06' E 014°41'.

Length 40 m; draft 4 m.

Type: Dredging. MMSI: 219000852.

Date/timePositionNaut miles runAvg speedWind from/ knotsBaromVisibWave heightAir tempDewpointWater temp
2015-Mar-30 12:33N 55°06' E 014°41'0 0.0
2015-Mar-30 11:33N 55°06' E 014°41'0 0.0
2015-Mar-30 10:33N 55°06' E 014°41'0 0.0
2015-Mar-30 09:33N 55°06' E 014°41'0 0.0
2015-Mar-30 08:33N 55°06' E 014°41'0 0.0
2015-Mar-30 07:33N 55°06' E 014°41'0 0.0
2015-Mar-30 06:33N 55°06' E 014°41'0 0.1
2015-Mar-30 05:33N 55°06' E 014°41'0 0.0
2015-Mar-30 04:33N 55°06' E 014°41'0 0.0
2015-Mar-30 03:33N 55°06' E 014°41'0 0.0
2015-Mar-30 02:33N 55°06' E 014°41'0 0.0
2015-Mar-30 01:33N 55°06' E 014°41'0 0.0
2015-Mar-30 00:33N 55°06' E 014°41'0 0.0
2015-Mar-29 23:33N 55°06' E 014°41'0 0.0
2015-Mar-29 22:33N 55°06' E 014°41'0 0.0
2015-Mar-29 21:33N 55°06' E 014°41'0 0.0
2015-Mar-29 20:33N 55°06' E 014°41'0 0.0
2015-Mar-29 19:33N 55°06' E 014°41'0 0.0
2015-Mar-29 18:33N 55°06' E 014°41'0 0.0
2015-Mar-29 17:33N 55°06' E 014°41'0 0.0
2015-Mar-29 16:33N 55°06' E 014°41'0 0.0
2015-Mar-29 15:33N 55°06' E 014°41'0 0.0
2015-Mar-29 14:33N 55°06' E 014°41'0 0.0
2015-Mar-29 13:33N 55°06' E 014°41'0 0.0
2015-Mar-29 12:33N 55°06' E 014°41'0 0.0
2015-Mar-29 11:33N 55°06' E 014°41'0 0.0
2015-Mar-29 10:33N 55°06' E 014°41'0 0.0
2015-Mar-29 09:33N 55°06' E 014°41'0 0.0
2015-Mar-29 08:33N 55°06' E 014°41'0 0.0
2015-Mar-29 07:33N 55°06' E 014°41'0 0.0
2015-Mar-29 06:33N 55°06' E 014°41'0 0.0
2015-Mar-29 05:33N 55°06' E 014°41'0 0.0
2015-Mar-29 04:33N 55°06' E 014°41'0 0.0
2015-Mar-29 03:33N 55°06' E 014°41'0 0.0
2015-Mar-29 02:33N 55°06' E 014°41'0 0.0
2015-Mar-29 01:33N 55°06' E 014°41'0 0.0
2015-Mar-29 00:33N 55°06' E 014°41'0 0.0
2015-Mar-28 23:33N 55°06' E 014°41'0 0.0
2015-Mar-28 22:33N 55°06' E 014°41'0 0.0
2015-Mar-28 21:33N 55°06' E 014°41'0 0.0
2015-Mar-28 20:33N 55°06' E 014°41'0 0.0
2015-Mar-28 19:33N 55°06' E 014°41'2 1.5
2015-Mar-28 18:33N 55°04' E 014°42'7 7.3
2015-Mar-28 17:33N 54°58' E 014°48'2 2.1
2015-Mar-28 16:33N 54°56' E 014°50'6 5.8
2015-Mar-28 15:33N 55°01' E 014°45'5 5.1
2015-Mar-28 14:33N 55°06' E 014°41'0 0.0
2015-Mar-28 13:33N 55°06' E 014°41'2 2.1
2015-Mar-28 12:33N 55°04' E 014°41'7 7.1
2015-Mar-28 11:33N 54°58' E 014°48'2 2.0
2015-Mar-28 10:33N 54°56' E 014°50'4 3.9
2015-Mar-28 09:33N 54°60' E 014°46'7 7.0
2015-Mar-28 08:33N 55°06' E 014°41'0 0.0
2015-Mar-28 07:33N 55°06' E 014°41'1 1.0
2015-Mar-28 06:33N 55°05' E 014°41'7 6.7
2015-Mar-28 05:34N 54°59' E 014°47'3 3.4
2015-Mar-28 04:33N 54°56' E 014°50'3 3.2
2015-Mar-28 03:33N 54°59' E 014°47'8 7.6
2015-Mar-28 02:33N 55°06' E 014°41'0 0.2
2015-Mar-28 01:33N 55°06' E 014°41'0 0.0
2015-Mar-28 00:33N 55°06' E 014°41'7 6.5
2015-Mar-27 23:33N 54°60' E 014°46'4 4.4
2015-Mar-27 22:33N 54°56' E 014°50'4 4.4
2015-Mar-27 21:33N 54°60' E 014°46'7 6.5
2015-Mar-27 20:33N 55°06' E 014°41'0 0.0
2015-Mar-27 19:33N 55°06' E 014°41'1 1.3
2015-Mar-27 18:33N 55°05' E 014°41'7 7.3
2015-Mar-27 17:33N 54°59' E 014°48'2 1.9
2015-Mar-27 16:33N 54°57' E 014°50'7 6.8
2015-Mar-27 15:33N 55°03' E 014°43'3 3.5
2015-Mar-27 14:33N 55°06' E 014°41'0 0.0
2015-Mar-27 13:33N 55°06' E 014°41'3 2.7
2015-Mar-27 12:33N 55°03' E 014°42'7 7.3
2015-Mar-27 11:33N 54°57' E 014°50'0 0.1
2015-Mar-27 10:33N 54°57' E 014°50'9 8.6
2015-Mar-27 09:33N 55°05' E 014°41'1 1.4
2015-Mar-27 08:33N 55°06' E 014°41'0 0.0
2015-Mar-27 07:33N 55°06' E 014°41'0 0.0
2015-Mar-27 06:33N 55°06' E 014°41'0 0.0
2015-Mar-27 05:33N 55°06' E 014°41'0 0.0
2015-Mar-27 04:33N 55°06' E 014°41'2 2.0
2015-Mar-27 03:33N 55°04' E 014°42'0 0.0
2015-Mar-27 02:33N 55°04' E 014°41'0 0.0
2015-Mar-27 01:33N 55°04' E 014°41'0 0.0
2015-Mar-27 00:33N 55°04' E 014°41'0 0.0
2015-Mar-26 23:33N 55°04' E 014°41'2 2.0
2015-Mar-26 22:33N 55°06' E 014°41'0 0.0
2015-Mar-26 21:33N 55°06' E 014°41'2 2.0
2015-Mar-26 20:33N 55°04' E 014°41'0 0.0
2015-Mar-26 19:33N 55°04' E 014°41'0 0.0
2015-Mar-26 18:33N 55°04' E 014°41'0 0.0
2015-Mar-26 17:34N 55°04' E 014°41'2 2.0
2015-Mar-26 16:33N 55°06' E 014°41'0 0.0
2015-Mar-26 15:33N 55°06' E 014°41'2 2.0
2015-Mar-26 14:33N 55°04' E 014°41'0 0.0
2015-Mar-26 13:33N 55°04' E 014°41'0 0.0
2015-Mar-26 12:33N 55°04' E 014°41'0 0.0
2015-Mar-26 11:34N 55°04' E 014°41'2 2.0
2015-Mar-26 10:33N 55°06' E 014°41'0 0.0
2015-Mar-26 09:33N 55°06' E 014°41'2 1.9
2015-Mar-26 08:34N 55°04' E 014°41'0 0.1
2015-Mar-26 07:33N 55°04' E 014°41'0 0.0
2015-Mar-26 06:33N 55°04' E 014°41'0 0.0
2015-Mar-26 05:33N 55°04' E 014°41'0 0.0
2015-Mar-26 04:34N 55°04' E 014°41'0 0.1
2015-Mar-26 03:33N 55°04' E 014°41'2 1.9
2015-Mar-26 02:33N 55°06' E 014°41'0 0.0
2015-Mar-26 01:33N 55°06' E 014°41'2 1.9
2015-Mar-26 00:33N 55°04' E 014°41'0 0.0
2015-Mar-25 23:33N 55°04' E 014°41'0 0.0
2015-Mar-25 22:34N 55°04' E 014°41'0 0.0
2015-Mar-25 21:33N 55°04' E 014°41'0 0.0
2015-Mar-25 20:33N 55°04' E 014°41'1 0.9
2015-Mar-25 19:33N 55°05' E 014°41'1 1.2
2015-Mar-25 18:33N 55°06' E 014°41'0 0.1
2015-Mar-25 17:34N 55°06' E 014°41'2 1.9
2015-Mar-25 16:34N 55°04' E 014°41'0 0.0
2015-Mar-25 15:33N 55°04' E 014°41'0 0.0
2015-Mar-25 14:33N 55°04' E 014°41'0 0.0
2015-Mar-25 13:33N 55°04' E 014°41'0 0.1
2015-Mar-25 12:34N 55°04' E 014°41'2 2.0
2015-Mar-25 11:33N 55°06' E 014°41'0 0.0
2015-Mar-25 10:33N 55°06' E 014°41'0 0.0
2015-Mar-25 09:33N 55°06' E 014°41'4 3.9
2015-Mar-25 08:33N 55°02' E 014°40'0 0.0
2015-Mar-25 07:33N 55°02' E 014°40'0 0.0
2015-Mar-25 06:33N 55°02' E 014°40'1 0.7
2015-Mar-25 05:33N 55°03' E 014°40'3 3.2
2015-Mar-25 04:33N 55°06' E 014°41'0 0.0
2015-Mar-25 03:33N 55°06' E 014°41'4 3.9
2015-Mar-25 02:33N 55°02' E 014°40'0 0.0
2015-Mar-25 01:34N 55°02' E 014°40'0 0.0
2015-Mar-25 00:33N 55°02' E 014°40'0 0.0
2015-Mar-24 23:33N 55°02' E 014°40'4 3.9
2015-Mar-24 22:33N 55°06' E 014°41'0 0.0
2015-Mar-24 21:33N 55°06' E 014°41'3 3.5
2015-Mar-24 20:33N 55°03' E 014°40'0 0.4
2015-Mar-24 19:33N 55°02' E 014°40'0 0.0
2015-Mar-24 18:33N 55°02' E 014°40'0 0.0
2015-Mar-24 17:33N 55°02' E 014°40'4 3.9
2015-Mar-24 16:33N 55°06' E 014°41'0 0.0
2015-Mar-24 15:33N 55°06' E 014°41'0 0.1
2015-Mar-24 14:33N 55°06' E 014°41'4 3.9
2015-Mar-24 13:33N 55°02' E 014°40'0 0.0
2015-Mar-24 12:33N 55°02' E 014°40'0 0.0
2015-Mar-24 11:34N 55°02' E 014°40'0 0.0
2015-Mar-24 10:34N 55°02' E 014°40'4 3.9
2015-Mar-24 09:33N 55°06' E 014°41'0 0.0
2015-Mar-24 08:33N 55°06' E 014°41'0 0.0
2015-Mar-24 07:33N 55°06' E 014°41'0 0.0
2015-Mar-24 06:33N 55°06' E 014°41'0 0.0
2015-Mar-24 05:33N 55°06' E 014°41'0 0.0
2015-Mar-24 04:33N 55°06' E 014°41'0 0.0
2015-Mar-24 03:34N 55°06' E 014°41'0 0.0
2015-Mar-24 02:33N 55°06' E 014°41'0 0.0
2015-Mar-24 01:33N 55°06' E 014°41'0 0.0
2015-Mar-24 00:33N 55°06' E 014°41'0 0.0
2015-Mar-23 23:33N 55°06' E 014°41'0 0.0
2015-Mar-23 22:33N 55°06' E 014°41'0 0.0
2015-Mar-23 21:33N 55°06' E 014°41'0 0.0
2015-Mar-23 20:33N 55°06' E 014°41'0 0.0
2015-Mar-23 19:33N 55°06' E 014°41'0 0.0
2015-Mar-23 18:33N 55°06' E 014°41'0 0.0
2015-Mar-23 17:33N 55°06' E 014°41'1 1.5
2015-Mar-23 16:33N 55°05' E 014°40'1 1.2
2015-Mar-23 15:33N 55°06' E 014°41'0 0.2
2015-Mar-23 14:33N 55°06' E 014°41'0 0.0
2015-Mar-23 13:33N 55°06' E 014°41'2 2.1
2015-Mar-23 12:33N 55°04' E 014°41'2 1.8
2015-Mar-23 11:33N 55°02' E 014°40'0 0.0
2015-Mar-23 10:33N 55°02' E 014°40'0 0.0
2015-Mar-23 09:34N 55°02' E 014°40'2 1.7
2015-Mar-23 08:33N 55°04' E 014°40'2 2.4
2015-Mar-23 07:33N 55°06' E 014°41'0 0.0
2015-Mar-23 06:33N 55°06' E 014°41'0 0.0
2015-Mar-23 05:33N 55°06' E 014°41'0 0.0
2015-Mar-23 04:33N 55°06' E 014°41'0 0.0
2015-Mar-23 03:33N 55°06' E 014°41'0 0.0
2015-Mar-23 02:34N 55°06' E 014°41'0 0.0
2015-Mar-23 01:33N 55°06' E 014°41'0 0.0
2015-Mar-23 00:33N 55°06' E 014°41'0 0.0
2015-Mar-22 23:33N 55°06' E 014°41'0 0.0
2015-Mar-22 22:33N 55°06' E 014°41'0 0.0
2015-Mar-22 21:33N 55°06' E 014°41'0 0.0
2015-Mar-22 20:33N 55°06' E 014°41'0 0.0
2015-Mar-22 19:33N 55°06' E 014°41'0 0.0
2015-Mar-22 18:33N 55°06' E 014°41'0 0.0
2015-Mar-22 17:34N 55°06' E 014°41'0 0.0
2015-Mar-22 16:34N 55°06' E 014°41'0 0.0
2015-Mar-22 15:34N 55°06' E 014°41'0 0.0
2015-Mar-22 14:33N 55°06' E 014°41'0 0.0
2015-Mar-22 13:34N 55°06' E 014°41'0 0.0
2015-Mar-22 12:34N 55°06' E 014°41'0 0.0
2015-Mar-22 11:34N 55°06' E 014°41'0 0.0
2015-Mar-22 10:34N 55°06' E 014°41'0 0.0
2015-Mar-22 09:34N 55°06' E 014°41'0 0.0
2015-Mar-22 08:34N 55°06' E 014°41'0 0.0
2015-Mar-22 07:34N 55°06' E 014°41'0 0.0
2015-Mar-22 06:34N 55°06' E 014°41'0 0.1
2015-Mar-22 05:34N 55°06' E 014°41'0 0.0
2015-Mar-22 04:34N 55°06' E 014°41'1 0.9
2015-Mar-22 03:34N 55°05' E 014°40'1 1.3
2015-Mar-22 02:34N 55°04' E 014°41'0 0.0
2015-Mar-22 01:34N 55°04' E 014°41'2 2.0
2015-Mar-22 00:34N 55°06' E 014°41'0 0.0
2015-Mar-21 23:34N 55°06' E 014°41'0 0.2
2015-Mar-21 22:33N 55°06' E 014°41'2 1.8
2015-Mar-21 21:34N 55°04' E 014°41'0 0.0
2015-Mar-21 20:34N 55°04' E 014°41'2 2.0
2015-Mar-21 19:34N 55°06' E 014°41'0 0.0
2015-Mar-21 18:34N 55°06' E 014°41'1 0.9
2015-Mar-21 17:34N 55°05' E 014°40'1 1.3
2015-Mar-21 16:33N 55°04' E 014°41'0 0.0
2015-Mar-21 15:34N 55°04' E 014°41'0 0.0
2015-Mar-21 14:34N 55°04' E 014°41'2 2.0
2015-Mar-21 13:34N 55°06' E 014°41'0 0.0
2015-Mar-21 12:33N 55°06' E 014°41'1 0.5
2015-Mar-21 11:34N 55°06' E 014°41'2 1.6
2015-Mar-21 10:33N 55°04' E 014°41'0 0.0
2015-Mar-21 09:34N 55°04' E 014°41'0 0.4
2015-Mar-21 08:34N 55°04' E 014°41'2 1.7
2015-Mar-21 07:33N 55°06' E 014°41'0 0.0
2015-Mar-21 06:33N 55°06' E 014°41'4 3.8
2015-Mar-21 05:34N 55°02' E 014°40'0 0.0
2015-Mar-21 04:33N 55°02' E 014°40'0 0.0
2015-Mar-21 03:33N 55°02' E 014°40'0 0.0
2015-Mar-21 02:34N 55°02' E 014°40'3 2.6
2015-Mar-21 01:34N 55°05' E 014°41'1 1.2
2015-Mar-21 00:34N 55°06' E 014°41'0 0.0
2015-Mar-20 23:34N 55°06' E 014°41'4 3.9
2015-Mar-20 22:33N 55°02' E 014°40'0 0.0
2015-Mar-20 21:33N 55°02' E 014°40'0 0.0
2015-Mar-20 20:34N 55°02' E 014°40'0 0.0
2015-Mar-20 19:34N 55°02' E 014°40'1 1.2
2015-Mar-20 18:34N 55°03' E 014°40'3 2.7
2015-Mar-20 17:34N 55°06' E 014°41'0 0.0
2015-Mar-20 16:34N 55°06' E 014°41'4 3.8
2015-Mar-20 15:33N 55°02' E 014°40'0 0.0
2015-Mar-20 14:34N 55°02' E 014°40'0 0.0
2015-Mar-20 13:34N 55°02' E 014°40'0 0.0
2015-Mar-20 12:34N 55°02' E 014°40'  

Dump ship's entire track history